createdAt,value
2018-01-18T00:01:16.374Z,88.24
2018-01-18T00:03:44.310Z,88.57
2018-01-18T00:06:12.278Z,87.73
2018-01-18T00:08:40.250Z,87.93
2018-01-18T00:11:08.161Z,88.17
2018-01-18T00:13:36.175Z,88.11
2018-01-18T00:16:04.188Z,88.13
2018-01-18T00:18:32.126Z,87.88
2018-01-18T00:21:00.062Z,88.39
2018-01-18T00:23:28.094Z,87.68
2018-01-18T00:25:57.321Z,87.79
2018-01-18T00:28:25.213Z,88.43
2018-01-18T00:30:53.133Z,88.14
2018-01-18T00:33:21.054Z,87.95
2018-01-18T00:35:49.030Z,87.77
2018-01-18T00:38:17.426Z,87.93
2018-01-18T00:40:45.345Z,88.02
2018-01-18T00:43:13.285Z,87.33
2018-01-18T00:45:41.313Z,87.17
2018-01-18T00:48:09.257Z,86.82
2018-01-18T00:50:37.168Z,87.85
2018-01-18T00:53:05.290Z,87.67
2018-01-18T00:55:33.238Z,87.16
2018-01-18T00:58:01.147Z,87.54
2018-01-18T01:00:29.094Z,87.74
2018-01-18T01:02:57.011Z,87.23
2018-01-18T01:05:24.961Z,87.24
2018-01-18T01:07:52.965Z,87.31
2018-01-18T01:10:21.637Z,87.52
2018-01-18T01:12:49.555Z,88.12
2018-01-18T01:15:17.471Z,87.27
2018-01-18T01:17:45.437Z,87.86
2018-01-18T01:20:13.362Z,87.98
2018-01-18T01:22:41.329Z,88.08
2018-01-18T01:25:09.274Z,88.80
2018-01-18T01:27:37.244Z,88.52
2018-01-18T01:30:05.154Z,88.25
2018-01-18T01:32:33.080Z,88.19
2018-01-18T01:35:00.993Z,89.40
2018-01-18T01:37:28.926Z,88.73
2018-01-18T01:39:57.032Z,88.70
2018-01-18T01:42:24.968Z,88.37
2018-01-18T01:44:52.873Z,88.90
2018-01-18T01:47:20.797Z,88.09
2018-01-18T01:49:48.717Z,88.94
2018-01-18T01:52:16.748Z,89.34
2018-01-18T01:54:44.673Z,88.82
2018-01-18T01:57:12.622Z,88.42
2018-01-18T01:59:40.603Z,88.78
2018-01-18T02:02:08.679Z,88.89
2018-01-18T02:04:36.630Z,88.94
2018-01-18T02:07:04.529Z,87.93
2018-01-18T02:09:32.481Z,88.06
2018-01-18T02:12:00.458Z,88.12
2018-01-18T02:14:28.508Z,87.54
2018-01-18T02:16:56.425Z,87.48
2018-01-18T02:19:24.334Z,87.88
2018-01-18T02:21:52.256Z,87.57
2018-01-18T02:24:20.170Z,87.68
2018-01-18T02:26:48.112Z,87.13
2018-01-18T02:29:16.051Z,88.45
2018-01-18T02:31:43.981Z,87.83
2018-01-18T02:34:11.981Z,87.67
2018-01-18T02:36:40.649Z,88.19
2018-01-18T02:39:08.562Z,87.32
2018-01-18T02:41:36.506Z,87.33
2018-01-18T02:44:04.525Z,87.40
2018-01-18T02:46:32.445Z,87.26
2018-01-18T02:49:00.414Z,87.46
2018-01-18T02:51:28.436Z,87.16
2018-01-18T02:53:56.364Z,87.10
2018-01-18T02:56:24.291Z,86.62
2018-01-18T02:58:52.225Z,86.68
2018-01-18T03:01:20.154Z,87.60
2018-01-18T03:03:48.064Z,87.51
2018-01-18T03:06:16.041Z,87.66
2018-01-18T03:08:43.949Z,87.35
2018-01-18T03:11:11.871Z,86.84
2018-01-18T03:13:39.809Z,86.79
2018-01-18T03:16:07.741Z,87.26
2018-01-18T03:18:35.716Z,87.55
2018-01-18T03:21:03.652Z,86.85
2018-01-18T03:23:31.558Z,87.21
2018-01-18T03:25:59.496Z,87.32
2018-01-18T03:28:27.429Z,87.17
2018-01-18T03:30:56.202Z,87.04
2018-01-18T03:33:24.086Z,87.33
2018-01-18T03:35:52.017Z,87.21
2018-01-18T03:38:19.941Z,86.64
2018-01-18T03:40:47.900Z,87.22
2018-01-18T03:43:15.829Z,86.77
2018-01-18T03:45:43.801Z,87.02
2018-01-18T03:48:11.815Z,87.76
2018-01-18T03:50:39.734Z,87.31
2018-01-18T03:53:07.653Z,86.95
2018-01-18T03:55:35.603Z,86.19
2018-01-18T03:58:03.519Z,86.67
2018-01-18T04:00:31.467Z,85.99
2018-01-18T04:02:59.381Z,86.11
2018-01-18T04:05:27.308Z,85.95
2018-01-18T04:07:55.230Z,87.35
2018-01-18T04:10:23.157Z,87.12
2018-01-18T04:12:51.598Z,87.36
2018-01-18T04:15:19.665Z,87.12
2018-01-18T04:17:47.589Z,86.88
2018-01-18T04:20:15.501Z,86.73
2018-01-18T04:22:43.422Z,87.18
2018-01-18T04:25:12.278Z,87.26
2018-01-18T04:27:40.205Z,86.54
2018-01-18T04:30:08.140Z,87.48
2018-01-18T04:32:36.432Z,87.58
2018-01-18T04:35:04.368Z,87.83
2018-01-18T04:37:32.316Z,87.61
2018-01-18T04:40:00.396Z,87.55
2018-01-18T04:42:28.464Z,87.48
2018-01-18T04:44:56.380Z,87.51
2018-01-18T04:47:24.376Z,87.25
2018-01-18T04:49:52.291Z,87.93
2018-01-18T04:52:20.201Z,88.24
2018-01-18T04:54:48.112Z,87.03
2018-01-18T04:57:16.138Z,88.01
2018-01-18T04:59:44.084Z,88.03
2018-01-18T05:02:12.035Z,87.48
2018-01-18T05:04:39.957Z,88.26
2018-01-18T05:07:07.904Z,87.83
2018-01-18T05:09:35.842Z,87.21
2018-01-18T05:12:03.777Z,87.53
2018-01-18T05:14:31.713Z,87.98
2018-01-18T05:16:59.630Z,87.66
2018-01-18T05:19:27.574Z,87.80
2018-01-18T05:21:55.666Z,88.12
2018-01-18T05:24:23.570Z,87.77
2018-01-18T05:26:51.580Z,87.53
2018-01-18T05:29:19.510Z,87.61
2018-01-18T05:31:47.446Z,86.51
2018-01-18T05:34:15.373Z,86.88
2018-01-18T05:36:43.289Z,87.39
2018-01-18T05:39:11.277Z,87.34
2018-01-18T05:41:39.219Z,87.36
2018-01-18T05:44:07.253Z,87.28
2018-01-18T05:46:35.170Z,87.15
2018-01-18T05:49:03.104Z,87.76
2018-01-18T05:51:31.026Z,87.62
2018-01-18T05:53:58.961Z,88.38
2018-01-18T05:56:27.150Z,88.02
2018-01-18T05:58:55.069Z,88.06
2018-01-18T06:01:23.115Z,88.25
2018-01-18T06:03:51.043Z,87.35
2018-01-18T06:06:19.330Z,87.54
2018-01-18T06:08:48.130Z,88.41
2018-01-18T06:11:16.321Z,88.08
2018-01-18T06:13:44.837Z,88.28
2018-01-18T06:16:13.816Z,87.67
2018-01-18T06:18:41.822Z,87.76
2018-01-18T06:21:09.794Z,87.88
2018-01-18T06:23:37.772Z,87.69
2018-01-18T06:26:05.852Z,88.12
2018-01-18T06:28:33.863Z,88.02
2018-01-18T06:31:01.925Z,88.01
2018-01-18T06:33:29.886Z,88.02
2018-01-18T06:35:57.870Z,88.19
2018-01-18T06:38:26.086Z,88.39
2018-01-18T06:40:54.283Z,88.08
2018-01-18T06:43:22.292Z,88.17
2018-01-18T06:45:51.142Z,88.47
2018-01-18T06:48:19.127Z,88.33
2018-01-18T06:50:47.098Z,87.96
2018-01-18T06:53:16.007Z,88.25
2018-01-18T06:55:45.256Z,89.16
2018-01-18T06:58:13.183Z,88.37
2018-01-18T07:00:41.228Z,87.88
2018-01-18T07:03:10.043Z,88.73
2018-01-18T07:05:38.095Z,88.57
2018-01-18T07:08:06.164Z,88.32
2018-01-18T07:10:35.073Z,88.43
2018-01-18T07:13:03.095Z,88.28
2018-01-18T07:15:31.056Z,88.73
2018-01-18T07:17:59.075Z,89.06
2018-01-18T07:20:28.061Z,88.66
2018-01-18T07:22:56.213Z,89.46
2018-01-18T07:25:24.196Z,88.89
2018-01-18T07:27:52.273Z,88.96
2018-01-18T07:30:20.203Z,89.90
2018-01-18T07:32:48.133Z,88.99
2018-01-18T07:35:16.235Z,88.92
2018-01-18T07:37:44.169Z,89.41
2018-01-18T07:40:12.139Z,89.52
2018-01-18T07:42:40.203Z,89.12
2018-01-18T07:45:08.473Z,89.34
2018-01-18T07:47:37.478Z,89.78
2018-01-18T07:50:05.676Z,89.17
2018-01-18T07:52:33.717Z,88.12
2018-01-18T07:55:01.873Z,89.00
2018-01-18T07:57:29.965Z,88.86
2018-01-18T07:59:58.822Z,89.63
2018-01-18T08:02:26.902Z,89.83
2018-01-18T08:04:55.053Z,89.63
2018-01-18T08:07:23.147Z,89.43
2018-01-18T08:09:51.264Z,89.44
2018-01-18T08:12:19.223Z,89.43
2018-01-18T08:14:47.392Z,89.83
2018-01-18T08:17:15.612Z,89.21
2018-01-18T08:19:43.565Z,89.43
2018-01-18T08:22:11.552Z,89.62
2018-01-18T08:24:39.529Z,88.83
2018-01-18T08:27:08.128Z,88.89
2018-01-18T08:29:36.114Z,89.12
2018-01-18T08:32:04.106Z,89.18
2018-01-18T08:34:32.076Z,89.94
2018-01-18T08:37:00.017Z,89.65
2018-01-18T08:39:28.161Z,89.64
2018-01-18T08:41:56.091Z,90.28
2018-01-18T08:44:24.111Z,89.63
2018-01-18T08:46:52.168Z,89.98
2018-01-18T08:49:20.155Z,90.02
2018-01-18T08:51:48.197Z,90.63
2018-01-18T08:54:16.226Z,90.02
2018-01-18T08:56:44.177Z,90.74
2018-01-18T08:59:12.123Z,90.26
2018-01-18T09:01:40.069Z,90.37
2018-01-18T09:04:08.123Z,89.92
2018-01-18T09:06:36.180Z,90.07
2018-01-18T09:09:04.174Z,90.03
2018-01-18T09:11:32.097Z,90.62
2018-01-18T09:14:00.171Z,90.29
2018-01-18T09:16:28.166Z,89.71
2018-01-18T09:18:56.258Z,89.86
2018-01-18T09:21:24.223Z,90.87
2018-01-18T09:23:52.232Z,90.30
2018-01-18T09:26:20.266Z,90.44
2018-01-18T09:28:48.260Z,90.65
2018-01-18T09:31:16.894Z,90.67
2018-01-18T09:33:44.922Z,90.82
2018-01-18T09:36:13.014Z,91.11
2018-01-18T09:38:41.068Z,90.97
2018-01-18T09:41:09.050Z,91.15
2018-01-18T09:43:37.098Z,91.59
2018-01-18T09:46:05.042Z,91.72
2018-01-18T09:48:33.252Z,91.99
2018-01-18T09:51:01.245Z,92.18
2018-01-18T09:53:30.199Z,92.20
2018-01-18T09:55:58.279Z,92.08
2018-01-18T09:58:26.328Z,92.56
2018-01-18T10:00:54.401Z,92.50
2018-01-18T10:03:23.828Z,92.86
2018-01-18T10:05:51.824Z,92.71
2018-01-18T10:08:20.000Z,92.63
2018-01-18T10:10:48.081Z,92.34
2018-01-18T10:13:16.117Z,92.81
2018-01-18T10:15:44.434Z,92.55
2018-01-18T10:18:12.391Z,92.51
2018-01-18T10:20:40.892Z,92.43
2018-01-18T10:23:08.834Z,92.24
2018-01-18T10:25:37.794Z,92.46
2018-01-18T10:28:05.864Z,91.98
2018-01-18T10:30:33.989Z,92.23
2018-01-18T10:33:02.226Z,92.61
2018-01-18T10:35:30.251Z,92.58
2018-01-18T10:37:58.350Z,92.88
2018-01-18T10:40:26.444Z,93.19
2018-01-18T10:42:54.468Z,92.23
2018-01-18T10:45:22.473Z,92.90
2018-01-18T10:47:50.446Z,93.74
2018-01-18T10:50:18.518Z,94.01
2018-01-18T10:52:46.738Z,93.92
2018-01-18T10:55:14.977Z,94.20
2018-01-18T10:57:43.004Z,94.32
2018-01-18T11:00:11.056Z,94.88
2018-01-18T11:02:39.082Z,95.13
2018-01-18T11:05:07.780Z,95.63
2018-01-18T11:07:35.707Z,95.37
2018-01-18T11:10:04.097Z,95.36
2018-01-18T11:12:33.005Z,94.88
2018-01-18T11:15:00.973Z,95.17
2018-01-18T11:17:28.918Z,95.10
2018-01-18T11:19:56.939Z,95.01
2018-01-18T11:22:24.857Z,95.10
2018-01-18T11:24:53.043Z,94.99
2018-01-18T11:27:20.990Z,95.02
2018-01-18T11:29:48.975Z,95.21
2018-01-18T11:32:16.921Z,95.25
2018-01-18T11:34:44.853Z,94.96
2018-01-18T11:37:12.777Z,94.85
2018-01-18T11:39:40.690Z,94.80
2018-01-18T11:42:08.637Z,94.88
2018-01-18T11:44:36.564Z,95.01
2018-01-18T11:47:04.486Z,94.65
2018-01-18T11:49:32.453Z,94.07
2018-01-18T11:52:00.362Z,93.15
2018-01-18T11:54:28.808Z,93.55
2018-01-18T11:56:56.763Z,93.11
2018-01-18T11:59:24.760Z,93.78
2018-01-18T12:01:52.685Z,93.54
2018-01-18T12:04:20.655Z,93.44
2018-01-18T12:06:48.717Z,92.66
2018-01-18T12:09:16.695Z,93.56
2018-01-18T12:11:44.679Z,93.57
2018-01-18T12:14:12.818Z,93.95
2018-01-18T12:16:40.741Z,93.59
2018-01-18T12:19:08.686Z,93.70
2018-01-18T12:21:36.653Z,93.35
2018-01-18T12:24:04.648Z,93.78
2018-01-18T12:26:32.650Z,93.79
2018-01-18T12:29:00.576Z,93.65
2018-01-18T12:31:28.547Z,94.40
2018-01-18T12:33:56.481Z,94.12
2018-01-18T12:36:24.409Z,94.68
2018-01-18T12:38:52.398Z,94.20
2018-01-18T12:41:20.389Z,93.19
2018-01-18T12:43:48.430Z,93.22
2018-01-18T12:46:16.338Z,92.56
2018-01-18T12:48:44.335Z,93.10
2018-01-18T12:51:12.323Z,93.46
2018-01-18T12:53:40.310Z,92.01
2018-01-18T12:56:08.259Z,91.88
2018-01-18T12:58:36.186Z,91.74
2018-01-18T13:01:04.095Z,92.06
2018-01-18T13:03:32.045Z,91.11
2018-01-18T13:06:00.185Z,91.66
2018-01-18T13:08:28.402Z,91.00
2018-01-18T13:10:56.627Z,91.35
2018-01-18T13:13:24.708Z,91.26
2018-01-18T13:15:53.488Z,90.43
2018-01-18T13:18:21.534Z,90.56
2018-01-18T13:20:49.758Z,90.86
2018-01-18T13:23:18.224Z,90.66
2018-01-18T13:25:46.529Z,90.82
2018-01-18T13:28:14.487Z,90.57
2018-01-18T13:30:42.384Z,90.33
2018-01-18T13:33:10.367Z,90.15
2018-01-18T13:35:38.396Z,90.24
2018-01-18T13:38:06.398Z,89.92
2018-01-18T13:40:34.367Z,90.41
2018-01-18T13:43:02.362Z,90.69
2018-01-18T13:45:30.300Z,89.84
2018-01-18T13:47:58.242Z,90.83
2018-01-18T13:50:26.153Z,90.73
2018-01-18T13:52:54.079Z,90.31
2018-01-18T13:55:22.034Z,90.90
2018-01-18T13:57:49.953Z,90.36
2018-01-18T14:00:17.874Z,89.27
2018-01-18T14:02:45.880Z,89.25
2018-01-18T14:05:13.808Z,88.66
2018-01-18T14:07:41.862Z,89.09
2018-01-18T14:10:09.781Z,89.25
2018-01-18T14:12:37.681Z,90.10
2018-01-18T14:15:05.601Z,91.75
2018-01-18T14:17:33.539Z,89.47
2018-01-18T14:20:01.504Z,89.77
2018-01-18T14:22:29.425Z,89.79
2018-01-18T14:24:57.602Z,88.55
2018-01-18T14:27:25.536Z,89.58
2018-01-18T14:29:53.487Z,89.28
2018-01-18T14:32:21.448Z,89.03
2018-01-18T14:34:49.382Z,89.01
2018-01-18T14:37:17.320Z,88.45
2018-01-18T14:39:45.971Z,87.30
2018-01-18T14:42:13.979Z,86.95
2018-01-18T14:44:41.898Z,86.67
2018-01-18T14:47:09.836Z,88.65
2018-01-18T14:49:37.752Z,87.91
2018-01-18T14:52:05.719Z,89.25
2018-01-18T14:54:33.674Z,89.56
2018-01-18T14:57:01.651Z,89.12
2018-01-18T14:59:29.570Z,88.53
2018-01-18T15:01:57.602Z,89.25
2018-01-18T15:04:25.722Z,89.12
2018-01-18T15:06:53.850Z,90.87
2018-01-18T15:09:21.976Z,90.07
2018-01-18T15:11:50.009Z,88.91
2018-01-18T15:14:17.978Z,90.02
2018-01-18T15:16:46.031Z,88.36
2018-01-18T15:19:14.008Z,88.37
2018-01-18T15:21:42.228Z,88.25
2018-01-18T15:24:10.213Z,89.23
2018-01-18T15:26:38.828Z,89.06
2018-01-18T15:29:07.079Z,89.73
2018-01-18T15:31:36.063Z,90.24
2018-01-18T15:34:04.180Z,89.41
2018-01-18T15:36:33.475Z,89.26
2018-01-18T15:39:01.651Z,89.09
2018-01-18T15:41:30.023Z,88.12
2018-01-18T15:43:58.288Z,88.67
2018-01-18T15:46:27.373Z,88.93
2018-01-18T15:48:56.289Z,89.07
2018-01-18T15:51:24.629Z,88.67
2018-01-18T15:53:52.677Z,89.42
2018-01-18T15:56:20.683Z,89.79
2018-01-18T15:58:48.922Z,90.05
2018-01-18T16:01:17.050Z,90.28
2018-01-18T16:03:45.120Z,89.61
2018-01-18T16:06:13.205Z,89.71
2018-01-18T16:08:41.271Z,90.50
2018-01-18T16:11:09.397Z,89.58
2018-01-18T16:13:37.518Z,90.16
2018-01-18T16:16:06.102Z,90.54
2018-01-18T16:18:34.108Z,90.60
2018-01-18T16:21:03.283Z,91.36
2018-01-18T16:23:31.209Z,89.75
2018-01-18T16:25:59.155Z,89.91
2018-01-18T16:28:27.089Z,89.57
2018-01-18T16:30:55.043Z,89.99
2018-01-18T16:33:23.011Z,89.11
2018-01-18T16:35:50.946Z,89.02
2018-01-18T16:38:18.906Z,89.18
2018-01-18T16:40:46.848Z,88.91
2018-01-18T16:43:14.759Z,89.78
2018-01-18T16:45:42.716Z,89.79
2018-01-18T16:48:10.652Z,90.02
2018-01-18T16:50:38.580Z,89.62
2018-01-18T16:53:07.091Z,90.63
2018-01-18T16:55:35.074Z,90.99
2018-01-18T16:58:03.315Z,90.61
2018-01-18T17:00:31.385Z,91.23
2018-01-18T17:02:59.437Z,91.25
2018-01-18T17:05:27.333Z,91.32
2018-01-18T17:07:55.254Z,91.51
2018-01-18T17:10:23.167Z,91.69
2018-01-18T17:12:51.507Z,90.85
2018-01-18T17:15:19.504Z,91.53
2018-01-18T17:17:47.425Z,91.75
2018-01-18T17:20:18.111Z,91.60
2018-01-18T17:22:46.054Z,92.14
2018-01-18T17:25:14.101Z,91.68
2018-01-18T17:27:42.518Z,92.01
2018-01-18T17:30:10.437Z,92.03
2018-01-18T17:32:38.407Z,91.59
2018-01-18T17:35:06.617Z,91.28
2018-01-18T17:37:34.587Z,91.69
2018-01-18T17:40:02.513Z,91.28
2018-01-18T17:42:30.432Z,90.60
2018-01-18T17:44:58.365Z,91.50
2018-01-18T17:47:26.304Z,91.43
2018-01-18T17:49:54.262Z,90.86
2018-01-18T17:52:22.322Z,91.12
2018-01-18T17:54:50.266Z,91.14
2018-01-18T17:57:18.170Z,91.36
2018-01-18T17:59:46.109Z,91.39
2018-01-18T18:02:14.032Z,91.08
2018-01-18T18:04:42.030Z,91.66
2018-01-18T18:07:09.972Z,92.85
2018-01-18T18:09:37.881Z,91.11
2018-01-18T18:12:05.814Z,91.10
2018-01-18T18:14:33.826Z,90.63
2018-01-18T18:17:01.834Z,89.25
2018-01-18T18:19:29.771Z,89.34
2018-01-18T18:21:57.709Z,88.83
2018-01-18T18:24:25.709Z,89.07
2018-01-18T18:26:53.671Z,89.64
2018-01-18T18:29:21.615Z,90.06
2018-01-18T18:31:49.527Z,88.89
2018-01-18T18:34:18.260Z,90.41
2018-01-18T18:36:46.181Z,91.33
2018-01-18T18:39:14.176Z,91.66
2018-01-18T18:41:42.114Z,91.87
2018-01-18T18:44:10.018Z,91.72
2018-01-18T18:46:37.986Z,91.54
2018-01-18T18:49:05.915Z,91.02
2018-01-18T18:51:33.901Z,91.02
2018-01-18T18:54:01.805Z,91.06
2018-01-18T18:56:29.719Z,91.03
2018-01-18T18:58:57.650Z,92.93
2018-01-18T19:01:25.565Z,91.37
2018-01-18T19:03:53.581Z,91.04
2018-01-18T19:06:21.506Z,91.43
2018-01-18T19:08:49.438Z,90.92
2018-01-18T19:11:17.371Z,91.40
2018-01-18T19:13:45.285Z,91.49
2018-01-18T19:16:13.209Z,91.69
2018-01-18T19:18:41.113Z,91.76
2018-01-18T19:21:09.034Z,91.78
2018-01-18T19:23:36.994Z,91.23
2018-01-18T19:26:04.986Z,91.25
2018-01-18T19:28:33.267Z,91.85
2018-01-18T19:31:01.346Z,91.91
2018-01-18T19:33:29.793Z,91.66
2018-01-18T19:35:57.745Z,91.55
2018-01-18T19:38:25.714Z,91.59
2018-01-18T19:40:53.673Z,94.40
2018-01-18T19:43:22.501Z,91.40
2018-01-18T19:45:50.435Z,92.01
2018-01-18T19:48:18.381Z,92.16
2018-01-18T19:50:46.294Z,92.06
2018-01-18T19:53:14.238Z,92.64
2018-01-18T19:55:42.206Z,92.70
2018-01-18T19:58:10.121Z,92.84
2018-01-18T20:00:38.271Z,92.30
2018-01-18T20:03:06.153Z,92.86
2018-01-18T20:05:34.074Z,91.78
2018-01-18T20:08:02.011Z,92.44
2018-01-18T20:10:29.922Z,92.57
2018-01-18T20:12:57.832Z,92.32
2018-01-18T20:15:25.776Z,92.08
2018-01-18T20:17:54.181Z,92.05
2018-01-18T20:23:13.703Z,94.30
2018-01-18T20:25:42.124Z,92.64
2018-01-18T20:28:10.114Z,91.63
2018-01-18T20:30:37.974Z,91.05
2018-01-18T20:33:05.901Z,91.08
2018-01-18T20:35:33.945Z,91.20
2018-01-18T20:38:01.883Z,90.91
2018-01-18T20:40:29.853Z,90.98
2018-01-18T20:42:57.782Z,91.66
2018-01-18T20:45:25.721Z,90.98
2018-01-18T20:47:53.715Z,90.45
2018-01-18T20:50:21.714Z,89.76
2018-01-18T20:52:49.659Z,89.50
2018-01-18T20:55:17.636Z,89.38
2018-01-18T20:57:45.572Z,90.00
2018-01-18T21:00:13.852Z,89.85
2018-01-18T21:02:41.752Z,90.41
2018-01-18T21:05:09.851Z,90.98
2018-01-18T21:07:37.780Z,90.83
2018-01-18T21:10:05.718Z,90.60
2018-01-18T21:12:33.645Z,90.52
2018-01-18T21:15:01.580Z,91.41
2018-01-18T21:17:29.653Z,90.57
2018-01-18T21:19:58.227Z,90.88
2018-01-18T21:22:26.222Z,90.66
2018-01-18T21:24:54.274Z,90.24
2018-01-18T21:27:22.274Z,90.07
2018-01-18T21:29:50.388Z,90.90
2018-01-18T21:32:18.640Z,90.72
2018-01-18T21:34:46.841Z,90.61
2018-01-18T21:37:14.921Z,90.86
2018-01-18T21:39:43.086Z,90.79
2018-01-18T21:42:11.211Z,91.02
2018-01-18T21:44:39.328Z,91.05
2018-01-18T21:47:07.994Z,91.34
2018-01-18T21:49:35.997Z,91.40
2018-01-18T21:52:04.115Z,91.67
2018-01-18T21:54:32.867Z,91.62
2018-01-18T21:57:01.209Z,92.03
2018-01-18T21:59:32.090Z,91.87
2018-01-18T22:02:00.623Z,91.82
2018-01-18T22:04:28.974Z,91.41
2018-01-18T22:06:57.101Z,91.22
2018-01-18T22:09:25.198Z,91.40
2018-01-18T22:11:53.121Z,91.90
2018-01-18T22:14:21.131Z,90.86
2018-01-18T22:16:49.156Z,90.15
2018-01-18T22:19:17.101Z,90.12
2018-01-18T22:21:45.022Z,90.17
2018-01-18T22:24:12.957Z,90.31
2018-01-18T22:26:40.946Z,90.21
2018-01-18T22:29:08.878Z,89.91
2018-01-18T22:31:36.802Z,90.34
2018-01-18T22:34:04.764Z,90.54
2018-01-18T22:36:32.716Z,89.13
2018-01-18T22:39:00.759Z,88.99
2018-01-18T22:41:28.779Z,89.93
2018-01-18T22:43:56.706Z,90.45
2018-01-18T22:46:24.701Z,90.46
2018-01-18T22:48:52.954Z,90.69
2018-01-18T22:51:20.932Z,90.39
2018-01-18T22:53:48.866Z,91.27
2018-01-18T22:56:16.808Z,90.62
2018-01-18T22:58:44.758Z,90.63
2018-01-18T23:01:12.701Z,90.90
2018-01-18T23:03:40.694Z,90.46
2018-01-18T23:06:09.487Z,90.26
2018-01-18T23:08:38.601Z,89.56
2018-01-18T23:11:07.336Z,89.06
2018-01-18T23:13:35.482Z,89.44
2018-01-18T23:16:27.659Z,89.25
2018-01-18T23:19:06.558Z,88.71
2018-01-18T23:21:34.548Z,88.72
2018-01-18T23:24:02.547Z,88.40
2018-01-18T23:26:30.562Z,89.05
2018-01-18T23:28:58.628Z,88.52
2018-01-18T23:31:26.578Z,88.06
2018-01-18T23:33:54.493Z,88.27
2018-01-18T23:36:22.441Z,88.31
2018-01-18T23:38:50.391Z,88.93
2018-01-18T23:41:18.313Z,89.44
2018-01-18T23:43:46.246Z,88.89
2018-01-18T23:46:14.193Z,88.89
2018-01-18T23:48:42.159Z,88.78
2018-01-18T23:51:10.081Z,88.73
2018-01-18T23:53:38.041Z,89.18
2018-01-18T23:56:06.051Z,89.33
2018-01-18T23:58:33.998Z,89.29
